createdAt,value
2018-06-22T00:02:13.335Z,15.67
2018-06-22T00:04:42.291Z,16.00
2018-06-22T00:07:11.105Z,16.10
2018-06-22T00:09:39.713Z,15.77
2018-06-22T00:12:08.266Z,15.87
2018-06-22T00:14:36.873Z,15.70
2018-06-22T00:17:05.423Z,17.13
2018-06-22T00:19:33.948Z,15.60
2018-06-22T00:22:02.496Z,18.83
2018-06-22T00:24:31.053Z,18.90
2018-06-22T00:26:59.555Z,18.93
2018-06-22T00:29:28.263Z,18.00
2018-06-22T00:31:57.075Z,17.57
2018-06-22T00:34:25.918Z,17.87
2018-06-22T00:36:54.753Z,19.43
2018-06-22T00:39:23.426Z,19.67
2018-06-22T00:41:51.955Z,19.13
2018-06-22T00:44:20.919Z,18.33
2018-06-22T00:46:49.434Z,18.27
2018-06-22T00:49:18.156Z,17.47
2018-06-22T00:51:46.986Z,16.53
2018-06-22T00:54:17.121Z,18.27
2018-06-22T00:56:46.514Z,20.37
2018-06-22T00:59:15.353Z,21.10
2018-06-22T01:01:44.224Z,20.10
2018-06-22T01:04:13.083Z,21.87
2018-06-22T01:06:41.916Z,20.43
2018-06-22T01:09:12.313Z,20.70
2018-06-22T01:11:41.153Z,19.57
2018-06-22T01:14:10.019Z,20.83
2018-06-22T01:16:38.951Z,20.37
2018-06-22T01:19:08.281Z,20.87
2018-06-22T01:21:37.166Z,21.10
2018-06-22T01:24:06.477Z,20.57
2018-06-22T01:26:35.323Z,22.83
2018-06-22T01:29:10.066Z,23.33
2018-06-22T01:31:38.555Z,22.90
2018-06-22T01:34:07.096Z,22.17
2018-06-22T01:36:35.596Z,21.30
2018-06-22T01:39:06.608Z,19.10
2018-06-22T01:41:35.113Z,19.80
2018-06-22T01:44:03.693Z,20.13
2018-06-22T01:46:32.566Z,20.97
2018-06-22T01:49:01.295Z,22.83
2018-06-22T01:51:30.130Z,22.87
2018-06-22T01:53:58.975Z,21.60
2018-06-22T01:56:27.803Z,22.67
2018-06-22T01:58:56.630Z,22.43
2018-06-22T02:01:25.446Z,24.03
2018-06-22T02:03:54.640Z,24.03
2018-06-22T02:06:23.520Z,25.57
2018-06-22T02:08:52.361Z,24.23
2018-06-22T02:11:20.936Z,26.07
2018-06-22T02:13:49.770Z,27.30
2018-06-22T02:16:18.619Z,27.93
2018-06-22T02:18:47.328Z,25.20
2018-06-22T02:21:15.916Z,27.87
2018-06-22T02:23:44.466Z,26.10
2018-06-22T02:26:12.964Z,22.13
2018-06-22T02:28:41.690Z,22.43
2018-06-22T02:31:10.547Z,22.37
2018-06-22T02:33:39.377Z,25.33
2018-06-22T02:36:08.216Z,27.30
2018-06-22T02:38:36.816Z,23.37
2018-06-22T02:41:06.260Z,25.00
2018-06-22T02:43:35.347Z,23.47
2018-06-22T02:46:04.048Z,24.23
2018-06-22T02:48:32.615Z,24.27
2018-06-22T02:51:01.432Z,21.73
2018-06-22T02:53:30.044Z,33.10
2018-06-22T02:55:58.553Z,34.23
2018-06-22T02:58:27.113Z,31.57
2018-06-22T03:00:55.633Z,35.67
2018-06-22T03:03:24.173Z,34.70
2018-06-22T03:05:52.671Z,36.57
2018-06-22T03:08:21.242Z,35.70
2018-06-22T03:10:49.801Z,32.57
2018-06-22T03:13:18.617Z,36.63
2018-06-22T03:15:47.301Z,32.97
2018-06-22T03:18:15.820Z,33.53
2018-06-22T03:20:44.551Z,33.80
2018-06-22T03:23:13.383Z,36.00
2018-06-22T03:25:42.296Z,38.27
2018-06-22T03:28:11.112Z,34.83
2018-06-22T03:30:39.935Z,33.30
2018-06-22T03:33:08.788Z,32.80
2018-06-22T03:35:37.630Z,33.07
2018-06-22T03:38:07.305Z,33.97
2018-06-22T03:40:36.150Z,33.97
2018-06-22T03:43:05.495Z,33.87
2018-06-22T03:45:34.353Z,32.80
2018-06-22T03:48:03.221Z,33.00
2018-06-22T03:50:31.898Z,33.20
2018-06-22T03:53:00.508Z,37.23
2018-06-22T03:55:29.270Z,34.50
2018-06-22T03:57:57.870Z,30.77
2018-06-22T04:00:26.531Z,31.53
2018-06-22T04:02:55.127Z,31.30
2018-06-22T04:05:23.701Z,29.07
2018-06-22T04:07:52.201Z,28.47
2018-06-22T04:10:21.035Z,29.47
2018-06-22T04:12:49.887Z,28.67
2018-06-22T04:15:18.686Z,28.37
2018-06-22T04:17:50.203Z,27.67
2018-06-22T04:20:20.008Z,25.17
2018-06-22T04:22:48.906Z,24.57
2018-06-22T04:25:18.421Z,23.17
2018-06-22T04:27:47.115Z,21.57
2018-06-22T04:30:15.978Z,21.27
2018-06-22T04:32:44.883Z,21.40
2018-06-22T04:35:13.525Z,20.80
2018-06-22T04:37:42.056Z,21.10
2018-06-22T04:40:10.838Z,22.07
2018-06-22T04:42:39.720Z,22.90
2018-06-22T04:45:08.578Z,21.83
2018-06-22T04:47:37.420Z,21.20
2018-06-22T04:50:06.320Z,20.37
2018-06-22T04:52:35.203Z,23.63
2018-06-22T04:55:04.047Z,20.77
2018-06-22T04:57:33.028Z,23.60
2018-06-22T05:00:01.643Z,24.20
2018-06-22T05:02:30.196Z,23.23
2018-06-22T05:04:58.755Z,22.83
2018-06-22T05:07:27.089Z,22.37
2018-06-22T05:09:55.871Z,23.57
2018-06-22T05:12:24.750Z,23.13
2018-06-22T05:14:53.663Z,23.67
2018-06-22T05:17:22.583Z,21.83
2018-06-22T05:19:51.244Z,22.27
2018-06-22T05:22:19.811Z,22.60
2018-06-22T05:24:48.390Z,22.57
2018-06-22T05:27:16.881Z,22.10
2018-06-22T05:29:45.436Z,22.37
2018-06-22T05:32:14.621Z,21.60
2018-06-22T05:34:43.182Z,23.20
2018-06-22T05:37:11.724Z,21.10
2018-06-22T05:39:40.303Z,21.43
2018-06-22T05:42:09.128Z,21.97
2018-06-22T05:44:37.715Z,21.07
2018-06-22T05:47:06.258Z,20.93
2018-06-22T05:49:34.926Z,20.73
2018-06-22T05:52:03.583Z,20.27
2018-06-22T05:54:32.238Z,20.37
2018-06-22T05:57:00.668Z,21.60
2018-06-22T05:59:29.150Z,21.13
2018-06-22T06:01:57.722Z,20.63
2018-06-22T06:04:26.328Z,20.67
2018-06-22T06:06:54.937Z,19.97
2018-06-22T06:09:23.753Z,21.17
2018-06-22T06:11:52.973Z,20.07
2018-06-22T06:14:21.893Z,19.17
2018-06-22T06:16:50.817Z,19.20
2018-06-22T06:19:19.813Z,20.13
2018-06-22T06:21:48.713Z,22.87
2018-06-22T06:24:17.595Z,21.70
2018-06-22T06:26:46.460Z,21.73
2018-06-22T06:29:15.402Z,21.17
2018-06-22T06:31:44.352Z,22.13
2018-06-22T06:34:13.291Z,21.97
2018-06-22T06:36:42.298Z,21.17
2018-06-22T06:39:11.037Z,21.00
2018-06-22T06:41:39.723Z,20.93
2018-06-22T06:44:08.437Z,21.43
2018-06-22T06:46:36.936Z,20.73
2018-06-22T06:49:05.556Z,20.20
2018-06-22T06:51:34.103Z,20.27
2018-06-22T06:54:02.979Z,18.40
2018-06-22T06:56:31.524Z,19.17
2018-06-22T06:59:00.284Z,19.77
2018-06-22T07:01:29.214Z,18.87
2018-06-22T07:03:58.216Z,19.20
2018-06-22T07:06:27.061Z,18.37
2018-06-22T07:08:55.892Z,17.13
2018-06-22T07:11:24.896Z,18.67
2018-06-22T07:13:53.758Z,17.57
2018-06-22T07:16:22.666Z,19.67
2018-06-22T07:18:51.533Z,18.70
2018-06-22T07:21:21.244Z,17.73
2018-06-22T07:23:50.209Z,15.83
2018-06-22T07:26:19.186Z,16.10
2018-06-22T07:28:48.034Z,15.45
2018-06-22T07:31:16.941Z,14.00
2018-06-22T07:33:46.193Z,14.07
2018-06-22T07:36:15.244Z,14.43
2018-06-22T07:38:43.976Z,14.77
2018-06-22T07:41:12.526Z,12.83
2018-06-22T07:43:42.063Z,13.98
2018-06-22T07:46:10.687Z,14.53
2018-06-22T07:48:39.496Z,13.43
2018-06-22T07:51:09.009Z,12.93
2018-06-22T07:53:38.352Z,14.17
2018-06-22T07:56:07.203Z,14.25
2018-06-22T07:58:36.149Z,13.03
2018-06-22T08:01:05.067Z,13.23
2018-06-22T08:03:33.896Z,12.23
2018-06-22T08:06:02.749Z,13.25
2018-06-22T08:08:31.672Z,12.73
2018-06-22T08:11:00.593Z,12.15
2018-06-22T08:13:30.356Z,12.37
2018-06-22T08:15:59.242Z,11.50
2018-06-22T08:18:28.182Z,11.90
2018-06-22T08:20:57.038Z,10.88
2018-06-22T08:23:25.951Z,11.00
2018-06-22T08:25:54.884Z,10.65
2018-06-22T08:28:23.814Z,11.33
2018-06-22T08:30:52.771Z,11.50
2018-06-22T08:33:21.646Z,10.93
2018-06-22T08:35:50.548Z,11.00
2018-06-22T08:38:19.396Z,10.35
2018-06-22T08:40:48.444Z,11.57
2018-06-22T08:43:17.281Z,11.20
2018-06-22T08:45:46.263Z,11.68
2018-06-22T08:48:14.893Z,11.67
2018-06-22T08:50:43.539Z,11.48
2018-06-22T08:53:13.041Z,12.13
2018-06-22T08:55:41.666Z,12.53
2018-06-22T08:58:10.465Z,11.45
2018-06-22T09:00:39.369Z,11.33
2018-06-22T09:03:09.308Z,11.07
2018-06-22T09:05:38.311Z,10.93
2018-06-22T09:08:13.036Z,11.33
2018-06-22T09:10:43.858Z,10.48
2018-06-22T09:13:13.007Z,10.20
2018-06-22T09:15:42.024Z,10.50
2018-06-22T09:18:11.119Z,10.35
2018-06-22T09:20:40.114Z,10.38
2018-06-22T09:23:09.244Z,9.95
2018-06-22T09:25:38.193Z,9.38
2018-06-22T09:28:06.835Z,9.73
2018-06-22T09:30:36.476Z,10.35
2018-06-22T09:33:05.114Z,10.93
2018-06-22T09:35:33.728Z,10.25
2018-06-22T09:38:02.403Z,10.25
2018-06-22T09:40:31.055Z,11.33
2018-06-22T09:42:59.714Z,9.45
2018-06-22T09:45:28.377Z,8.90
2018-06-22T09:47:57.376Z,9.88
2018-06-22T09:50:26.324Z,9.55
2018-06-22T09:52:55.300Z,8.73
2018-06-22T09:55:24.264Z,8.73
2018-06-22T09:57:53.041Z,9.03
2018-06-22T10:00:21.691Z,8.50
2018-06-22T10:02:50.425Z,8.53
2018-06-22T10:05:19.055Z,8.55
2018-06-22T10:07:47.671Z,8.28
2018-06-22T10:10:16.200Z,8.65
2018-06-22T10:12:44.863Z,7.90
2018-06-22T10:15:13.448Z,8.40
2018-06-22T10:17:42.318Z,8.10
2018-06-22T10:20:11.158Z,8.23
2018-06-22T10:22:40.168Z,7.47
2018-06-22T10:25:09.146Z,7.62
2018-06-22T10:27:38.556Z,7.87
2018-06-22T10:30:07.128Z,7.90
2018-06-22T10:32:35.703Z,7.75
2018-06-22T10:35:04.398Z,7.60
2018-06-22T10:37:33.044Z,8.03
2018-06-22T10:40:01.712Z,7.35
2018-06-22T10:42:30.295Z,8.20
2018-06-22T10:44:58.923Z,8.48
2018-06-22T10:47:27.888Z,8.20
2018-06-22T10:49:57.051Z,8.40
2018-06-22T10:52:26.036Z,8.10
2018-06-22T10:54:55.175Z,8.30
2018-06-22T10:57:24.031Z,8.68
2018-06-22T10:59:53.014Z,8.50
2018-06-22T11:02:21.643Z,8.25
2018-06-22T11:04:50.281Z,8.58
2018-06-22T11:07:19.334Z,7.85
2018-06-22T11:09:48.361Z,7.70
2018-06-22T11:12:17.276Z,7.90
2018-06-22T11:14:46.164Z,7.65
2018-06-22T11:17:15.104Z,7.50
2018-06-22T11:19:44.078Z,7.15
2018-06-22T11:22:12.949Z,6.45
2018-06-22T11:24:42.041Z,6.65
2018-06-22T11:27:10.931Z,6.95
2018-06-22T11:29:39.664Z,7.20
2018-06-22T11:32:08.623Z,6.47
2018-06-22T11:34:37.429Z,6.30
2018-06-22T11:37:06.556Z,6.22
2018-06-22T11:39:35.263Z,6.10
2018-06-22T11:42:04.031Z,5.62
2018-06-22T11:44:32.616Z,6.30
2018-06-22T11:47:01.896Z,5.97
2018-06-22T11:49:31.185Z,6.50
2018-06-22T11:52:00.344Z,6.50
2018-06-22T11:54:29.343Z,6.35
2018-06-22T11:56:58.201Z,6.25
2018-06-22T11:59:27.284Z,6.40
2018-06-22T12:01:55.855Z,6.67
2018-06-22T12:04:24.571Z,5.87
2018-06-22T12:06:53.787Z,7.17
2018-06-22T12:09:22.826Z,6.70
2018-06-22T12:11:51.874Z,6.60
2018-06-22T12:14:20.895Z,6.50
2018-06-22T12:16:49.942Z,6.50
2018-06-22T12:19:19.131Z,7.20
2018-06-22T12:21:48.107Z,6.83
2018-06-22T12:24:17.046Z,5.58
2018-06-22T12:26:46.202Z,6.35
2018-06-22T12:29:15.723Z,6.45
2018-06-22T12:31:44.655Z,6.03
2018-06-22T12:34:13.604Z,5.55
2018-06-22T12:36:42.741Z,6.03
2018-06-22T12:39:13.033Z,5.60
2018-06-22T12:41:42.728Z,5.20
2018-06-22T12:44:11.365Z,5.50
2018-06-22T12:46:40.160Z,5.37
2018-06-22T12:49:08.993Z,5.12
2018-06-22T12:51:37.782Z,5.20
2018-06-22T12:54:06.665Z,5.40
2018-06-22T12:56:35.588Z,5.55
2018-06-22T12:59:04.636Z,5.22
2018-06-22T13:01:33.597Z,5.65
2018-06-22T13:04:02.577Z,5.37
2018-06-22T13:06:31.520Z,5.50
2018-06-22T13:09:00.269Z,5.20
2018-06-22T13:11:28.991Z,5.90
2018-06-22T13:13:57.621Z,5.22
2018-06-22T13:16:26.424Z,5.87
2018-06-22T13:18:55.496Z,5.83
2018-06-22T13:21:24.476Z,6.20
2018-06-22T13:23:53.429Z,5.87
2018-06-22T13:26:22.177Z,6.15
2018-06-22T13:28:51.157Z,6.42
2018-06-22T13:31:20.224Z,5.80
2018-06-22T13:33:48.846Z,6.47
2018-06-22T13:36:17.649Z,6.20
2018-06-22T13:38:46.536Z,6.53
2018-06-22T13:41:15.478Z,6.55
2018-06-22T13:43:44.197Z,6.08
2018-06-22T13:46:13.144Z,5.90
2018-06-22T13:48:42.096Z,5.60
2018-06-22T13:51:11.198Z,5.42
2018-06-22T13:53:40.194Z,5.28
2018-06-22T13:56:08.951Z,5.20
2018-06-22T13:58:37.733Z,5.00
2018-06-22T14:01:06.560Z,5.40
2018-06-22T14:03:39.766Z,5.55
2018-06-22T14:06:14.061Z,5.33
2018-06-22T14:08:42.739Z,4.67
2018-06-22T14:11:11.392Z,4.55
2018-06-22T14:13:39.984Z,4.53
2018-06-22T14:16:08.923Z,5.00
2018-06-22T14:18:37.896Z,4.70
2018-06-22T14:21:07.031Z,5.08
2018-06-22T14:23:36.077Z,4.95
2018-06-22T14:26:05.461Z,4.97
2018-06-22T14:28:34.473Z,5.28
2018-06-22T14:31:03.556Z,5.00
2018-06-22T14:33:32.547Z,5.20
2018-06-22T14:36:01.529Z,5.30
2018-06-22T14:38:30.653Z,5.55
2018-06-22T14:40:59.703Z,5.45
2018-06-22T14:43:28.425Z,4.58
2018-06-22T14:45:57.689Z,5.17
2018-06-22T14:48:26.785Z,5.20
2018-06-22T14:50:55.760Z,5.22
2018-06-22T14:53:30.280Z,5.03
2018-06-22T14:56:04.893Z,5.30
2018-06-22T14:58:39.204Z,5.03
2018-06-22T15:01:13.553Z,4.80
2018-06-22T15:03:47.734Z,5.00
2018-06-22T15:06:21.791Z,5.03
2018-06-22T15:08:50.516Z,5.70
2018-06-22T15:11:19.128Z,5.28
2018-06-22T15:13:49.189Z,4.95
2018-06-22T15:16:17.964Z,5.33
2018-06-22T15:18:47.236Z,5.40
2018-06-22T15:21:15.859Z,5.50
2018-06-22T15:23:44.456Z,6.30
2018-06-22T15:26:13.126Z,6.40
2018-06-22T15:28:42.036Z,6.55
2018-06-22T15:31:10.961Z,6.60
2018-06-22T15:33:45.376Z,6.40
2018-06-22T15:36:19.882Z,6.97
2018-06-22T15:38:54.531Z,6.75
2018-06-22T15:41:29.062Z,6.60
2018-06-22T15:44:03.568Z,6.50
2018-06-22T15:46:38.218Z,6.08
2018-06-22T15:49:12.547Z,5.95
2018-06-22T15:51:46.823Z,5.97
2018-06-22T15:54:22.359Z,5.50
2018-06-22T15:56:51.141Z,4.78
2018-06-22T15:59:20.212Z,5.28
2018-06-22T16:01:49.109Z,5.12
2018-06-22T16:04:18.083Z,5.65
2018-06-22T16:06:47.016Z,6.37
2018-06-22T16:09:15.761Z,6.35
2018-06-22T16:11:44.447Z,6.58
2018-06-22T16:14:18.520Z,6.67
2018-06-22T16:16:52.637Z,6.37
2018-06-22T16:19:28.120Z,6.50
2018-06-22T16:22:02.703Z,5.90
2018-06-22T16:24:37.203Z,5.60
2018-06-22T16:27:07.759Z,5.37
2018-06-22T16:29:36.793Z,6.03
2018-06-22T16:32:05.799Z,5.70
2018-06-22T16:34:34.751Z,6.12
2018-06-22T16:37:03.714Z,5.35
2018-06-22T16:39:32.685Z,5.65
2018-06-22T16:42:03.276Z,5.78
2018-06-22T16:44:32.195Z,5.78
2018-06-22T16:47:01.271Z,5.90
2018-06-22T16:49:30.333Z,5.33
2018-06-22T16:51:59.316Z,5.55
2018-06-22T16:54:28.237Z,5.78
2018-06-22T16:56:56.959Z,5.97
2018-06-22T16:59:26.034Z,5.40
2018-06-22T17:01:55.037Z,5.10
2018-06-22T17:04:23.982Z,5.50
2018-06-22T17:06:58.461Z,5.90
2018-06-22T17:09:33.001Z,5.60
2018-06-22T17:14:10.753Z,5.25
2018-06-22T17:16:45.123Z,5.62
2018-06-22T17:19:19.182Z,5.58
2018-06-22T17:21:48.061Z,5.77
2018-06-22T17:24:16.750Z,5.65
2018-06-22T17:26:45.834Z,5.70
2018-06-22T17:29:14.856Z,5.65
2018-06-22T17:31:43.576Z,5.83
2018-06-22T17:34:12.218Z,5.70
2018-06-22T17:36:41.008Z,5.55
2018-06-22T17:39:11.399Z,5.65
2018-06-22T17:41:40.301Z,6.00
2018-06-22T17:44:09.248Z,5.90
2018-06-22T17:46:38.279Z,6.20
2018-06-22T17:49:07.207Z,6.43
2018-06-22T17:51:36.124Z,6.23
2018-06-22T17:54:05.608Z,6.37
2018-06-22T17:56:34.164Z,6.40
2018-06-22T17:59:08.386Z,6.97
2018-06-22T18:01:42.793Z,6.93
2018-06-22T18:06:25.816Z,6.53
2018-06-22T18:08:54.799Z,7.10
2018-06-22T18:11:29.338Z,6.60
2018-06-22T18:13:58.242Z,6.60
2018-06-22T18:16:27.434Z,6.60
2018-06-22T18:18:56.439Z,6.47
2018-06-22T18:21:25.459Z,6.30
2018-06-22T18:23:54.427Z,6.10
2018-06-22T18:26:23.407Z,6.50
2018-06-22T18:28:52.368Z,6.10
2018-06-22T18:31:21.129Z,6.37
2018-06-22T18:33:49.904Z,6.47
2018-06-22T18:36:18.663Z,5.90
2018-06-22T18:38:47.304Z,6.87
2018-06-22T18:41:15.984Z,6.43
2018-06-22T18:43:50.301Z,6.60
2018-06-22T18:46:19.173Z,6.70
2018-06-22T18:48:47.876Z,6.90
2018-06-22T18:51:16.806Z,6.37
2018-06-22T18:53:51.117Z,6.53
2018-06-22T18:56:25.982Z,6.33
2018-06-22T18:59:01.292Z,6.47
2018-06-22T19:01:36.286Z,6.80
2018-06-22T19:04:05.024Z,6.53
2018-06-22T19:06:33.683Z,7.73
2018-06-22T19:09:02.364Z,7.67
2018-06-22T19:11:31.318Z,8.50
2018-06-22T19:14:00.229Z,8.50
2018-06-22T19:16:29.229Z,8.20
2018-06-22T19:18:58.261Z,8.40
2018-06-22T19:21:26.958Z,8.47
2018-06-22T19:23:55.585Z,9.27
2018-06-22T19:26:24.204Z,8.90
2018-06-22T19:28:52.833Z,9.27
2018-06-22T19:31:21.591Z,8.40
2018-06-22T19:33:50.064Z,8.30
2018-06-22T19:36:18.553Z,7.93
2018-06-22T19:38:47.120Z,8.37
2018-06-22T19:41:15.984Z,8.13
2018-06-22T19:43:50.403Z,8.03
2018-06-22T19:46:24.958Z,7.50
2018-06-22T19:49:00.147Z,7.77
2018-06-22T19:51:34.340Z,7.20
2018-06-22T19:54:05.495Z,7.43
2018-06-22T19:56:34.176Z,8.97
2018-06-22T19:59:03.015Z,6.97
2018-06-22T20:01:32.151Z,7.40
2018-06-22T20:04:01.198Z,6.90
2018-06-22T20:06:30.150Z,7.10
2018-06-22T20:08:59.146Z,7.33
2018-06-22T20:11:28.603Z,7.17
2018-06-22T20:13:57.548Z,7.10
2018-06-22T20:16:26.834Z,7.27
2018-06-22T20:18:56.010Z,6.70
2018-06-22T20:21:24.889Z,6.30
2018-06-22T20:23:53.345Z,6.67
2018-06-22T20:26:22.071Z,6.90
2018-06-22T20:28:50.732Z,6.50
2018-06-22T20:31:25.260Z,6.50
2018-06-22T20:33:54.336Z,7.50
2018-06-22T20:36:29.086Z,6.93
2018-06-22T20:39:03.529Z,6.90
2018-06-22T20:41:37.756Z,6.77
2018-06-22T20:44:12.061Z,6.70
2018-06-22T20:46:46.288Z,7.03
2018-06-22T20:49:20.696Z,6.63
2018-06-22T20:51:49.439Z,6.60
2018-06-22T20:54:18.124Z,5.90
2018-06-22T20:56:46.816Z,6.10
2018-06-22T20:59:15.514Z,5.10
2018-06-22T21:01:43.984Z,5.17
2018-06-22T21:04:12.789Z,5.30
2018-06-22T21:06:41.494Z,6.57
2018-06-22T21:09:10.679Z,5.90
2018-06-22T21:11:39.263Z,6.30
2018-06-22T21:14:08.358Z,6.27
2018-06-22T21:16:37.335Z,5.63
2018-06-22T21:19:06.320Z,6.00
2018-06-22T21:21:41.257Z,5.70
2018-06-22T21:24:09.858Z,6.23
2018-06-22T21:26:38.531Z,6.33
2018-06-22T21:29:12.789Z,6.10
2018-06-22T21:31:46.880Z,5.70
2018-06-22T21:34:21.001Z,6.13
2018-06-22T21:36:55.223Z,5.93
2018-06-22T21:39:23.866Z,5.40
2018-06-22T21:41:52.599Z,5.60
2018-06-22T21:44:21.666Z,5.50
2018-06-22T21:46:50.605Z,6.07
2018-06-22T21:49:19.514Z,5.33
2018-06-22T21:51:48.449Z,4.53
2018-06-22T21:54:17.331Z,5.23
2018-06-22T21:56:46.316Z,4.80
2018-06-22T21:59:15.183Z,6.20
2018-06-22T22:01:43.879Z,5.50
2018-06-22T22:04:12.476Z,5.40
2018-06-22T22:06:41.156Z,5.07
2018-06-22T22:09:10.159Z,5.80
2018-06-22T22:11:44.651Z,4.97
2018-06-22T22:14:13.498Z,4.33
2018-06-22T22:16:42.453Z,4.50
2018-06-22T22:19:11.080Z,4.40
2018-06-22T22:21:40.053Z,4.57
2018-06-22T22:24:09.026Z,4.30
2018-06-22T22:26:38.037Z,3.93
2018-06-22T22:29:07.800Z,3.57
2018-06-22T22:31:37.425Z,4.30
2018-06-22T22:34:06.393Z,4.00
2018-06-22T22:36:35.363Z,3.70
2018-06-22T22:39:07.202Z,3.57
2018-06-22T22:41:36.468Z,3.63
2018-06-22T22:44:05.646Z,3.40
2018-06-22T22:46:34.213Z,3.50
2018-06-22T22:49:03.106Z,4.00
2018-06-22T22:51:32.026Z,3.07
2018-06-22T22:54:00.760Z,3.30
2018-06-22T22:56:29.383Z,3.50
2018-06-22T22:58:58.278Z,2.43
2018-06-22T23:01:27.348Z,2.83
2018-06-22T23:03:55.936Z,2.87
2018-06-22T23:06:24.516Z,3.27
2018-06-22T23:08:53.108Z,2.70
2018-06-22T23:11:21.721Z,2.90
2018-06-22T23:13:50.355Z,2.90
2018-06-22T23:16:18.976Z,2.50
2018-06-22T23:18:47.551Z,2.60
2018-06-22T23:21:16.113Z,2.20
2018-06-22T23:23:44.848Z,2.47
2018-06-22T23:26:14.123Z,2.60
2018-06-22T23:28:42.788Z,2.67
2018-06-22T23:31:11.401Z,2.67
2018-06-22T23:33:40.015Z,2.50
2018-06-22T23:36:08.633Z,2.50
2018-06-22T23:38:37.317Z,2.37
2018-06-22T23:41:06.096Z,2.40
2018-06-22T23:43:35.088Z,2.50
2018-06-22T23:46:04.131Z,2.40
2018-06-22T23:48:32.724Z,2.30
2018-06-22T23:51:01.694Z,2.20
2018-06-22T23:53:30.613Z,2.53
2018-06-22T23:55:59.564Z,2.20
2018-06-22T23:58:28.451Z,2.07
